createdAt,value
2023-02-13T00:01:23.153Z,17.20
2023-02-13T00:03:52.218Z,17.43
2023-02-13T00:06:24.116Z,17.53
2023-02-13T00:08:55.223Z,19.33
2023-02-13T00:11:26.954Z,24.77
2023-02-13T00:13:55.197Z,21.40
2023-02-13T00:16:27.120Z,17.63
2023-02-13T00:19:07.866Z,18.73
2023-02-13T00:21:42.391Z,21.83
2023-02-13T00:24:20.115Z,18.67
2023-02-13T00:27:00.973Z,16.77
2023-02-13T00:29:41.008Z,18.53
2023-02-13T00:32:13.094Z,19.97
2023-02-13T00:34:45.510Z,15.10
2023-02-13T00:37:15.480Z,19.40
2023-02-13T00:39:47.125Z,24.73
2023-02-13T00:42:31.945Z,20.80
2023-02-13T00:45:00.156Z,18.80
2023-02-13T00:47:33.047Z,18.30
2023-02-13T00:50:10.060Z,17.73
2023-02-13T00:52:39.384Z,25.77
2023-02-13T00:55:09.402Z,23.17
2023-02-13T00:57:40.524Z,29.43
2023-02-13T01:00:11.876Z,26.07
2023-02-13T01:02:50.640Z,28.17
2023-02-13T01:05:20.686Z,21.47
2023-02-13T01:07:52.550Z,30.67
2023-02-13T01:10:27.818Z,27.50
2023-02-13T01:13:00.977Z,29.73
2023-02-13T01:15:38.665Z,28.30
2023-02-13T01:18:16.522Z,23.27
2023-02-13T01:20:48.059Z,25.57
2023-02-13T01:23:18.300Z,25.43
2023-02-13T01:25:48.117Z,28.07
2023-02-13T01:28:22.365Z,26.57
2023-02-13T01:30:58.197Z,24.10
2023-02-13T01:33:43.277Z,30.17
2023-02-13T01:36:22.757Z,26.50
2023-02-13T01:38:55.417Z,31.17
2023-02-13T01:41:37.247Z,31.77
2023-02-13T01:44:46.223Z,32.93
2023-02-13T01:47:29.873Z,31.27
2023-02-13T01:50:07.369Z,31.33
2023-02-13T01:52:37.705Z,43.23
2023-02-13T01:55:15.261Z,48.70
2023-02-13T01:57:49.403Z,36.53
2023-02-13T02:00:31.144Z,35.13
2023-02-13T02:03:07.612Z,29.17
2023-02-13T02:05:40.449Z,24.27
2023-02-13T02:08:17.236Z,28.00
2023-02-13T02:10:46.873Z,26.50
2023-02-13T02:13:20.645Z,29.20
2023-02-13T02:16:02.665Z,28.20
2023-02-13T02:18:31.338Z,28.10
2023-02-13T02:21:41.340Z,29.03
2023-02-13T02:24:46.555Z,23.57
2023-02-13T02:27:22.747Z,27.03
2023-02-13T02:30:31.728Z,28.07
2023-02-13T02:33:12.665Z,29.77
2023-02-13T02:35:51.710Z,25.90
2023-02-13T02:38:31.724Z,25.17
2023-02-13T02:41:11.171Z,31.27
2023-02-13T02:43:53.617Z,31.10
2023-02-13T02:46:31.267Z,29.30
2023-02-13T02:49:24.080Z,25.97
2023-02-13T02:52:03.693Z,22.87
2023-02-13T02:54:54.672Z,23.07
2023-02-13T02:57:50.717Z,28.27
2023-02-13T03:00:45.480Z,27.57
2023-02-13T03:03:38.732Z,28.70
2023-02-13T03:06:16.094Z,29.17
2023-02-13T03:09:09.416Z,30.50
2023-02-13T03:11:57.723Z,30.43
2023-02-13T03:14:34.187Z,30.03
2023-02-13T03:17:21.945Z,29.23
2023-02-13T03:20:40.318Z,28.97
2023-02-13T03:23:29.196Z,34.50
2023-02-13T03:26:18.510Z,29.20
2023-02-13T03:29:10.752Z,26.63
2023-02-13T03:31:46.829Z,28.20
2023-02-13T03:34:19.051Z,33.00
2023-02-13T03:37:09.364Z,29.27
2023-02-13T03:39:53.356Z,24.80
2023-02-13T03:42:29.168Z,31.30
2023-02-13T03:45:21.989Z,26.67
2023-02-13T03:47:54.814Z,24.37
2023-02-13T03:50:25.353Z,26.37
2023-02-13T03:52:58.350Z,22.40
2023-02-13T03:55:52.656Z,22.77
2023-02-13T03:58:42.791Z,24.87
2023-02-13T04:01:16.324Z,22.43
2023-02-13T04:03:52.607Z,20.63
2023-02-13T04:06:35.568Z,20.83
2023-02-13T04:09:04.916Z,21.80
2023-02-13T04:11:41.412Z,23.93
2023-02-13T04:14:26.984Z,23.70
2023-02-13T04:17:00.818Z,22.63
2023-02-13T04:19:29.740Z,22.00
2023-02-13T04:22:01.292Z,21.50
2023-02-13T04:24:32.085Z,20.67
2023-02-13T04:27:04.045Z,25.30
2023-02-13T04:29:33.598Z,24.63
2023-02-13T04:32:08.283Z,24.97
2023-02-13T04:34:36.705Z,21.57
2023-02-13T04:37:14.042Z,21.40
2023-02-13T04:39:45.009Z,23.40
2023-02-13T04:42:31.154Z,20.50
2023-02-13T04:45:01.678Z,20.13
2023-02-13T04:47:32.115Z,22.00
2023-02-13T04:50:02.838Z,24.00
2023-02-13T04:52:34.519Z,22.50
2023-02-13T04:55:06.547Z,23.13
2023-02-13T04:57:43.373Z,31.33
2023-02-13T05:00:20.372Z,19.43
2023-02-13T05:02:48.455Z,19.57
2023-02-13T05:05:18.885Z,21.43
2023-02-13T05:07:48.352Z,19.83
2023-02-13T05:10:17.891Z,24.93
2023-02-13T05:12:51.959Z,23.10
2023-02-13T05:15:20.618Z,19.17
2023-02-13T05:17:50.639Z,25.27
2023-02-13T05:20:29.509Z,19.30
2023-02-13T05:23:18.126Z,20.20
2023-02-13T05:25:52.011Z,20.03
2023-02-13T05:28:53.428Z,21.00
2023-02-13T05:31:24.018Z,21.77
2023-02-13T05:33:52.999Z,19.90
2023-02-13T05:36:22.408Z,17.77
2023-02-13T05:38:53.259Z,17.93
2023-02-13T05:41:24.995Z,19.20
2023-02-13T05:44:08.691Z,17.10
2023-02-13T05:46:46.596Z,18.80
2023-02-13T05:49:19.631Z,16.43
2023-02-13T05:51:56.791Z,19.83
2023-02-13T05:54:26.242Z,18.87
2023-02-13T05:56:54.558Z,23.63
2023-02-13T05:59:40.001Z,19.03
2023-02-13T06:02:08.603Z,23.53
2023-02-13T06:04:49.354Z,20.10
2023-02-13T06:07:23.453Z,17.60
2023-02-13T06:09:55.392Z,19.70
2023-02-13T06:12:23.556Z,18.30
2023-02-13T06:15:13.848Z,16.23
2023-02-13T06:17:42.944Z,14.87
2023-02-13T06:20:14.180Z,17.40
2023-02-13T06:22:42.655Z,11.23
2023-02-13T06:25:19.994Z,10.30
2023-02-13T06:27:48.801Z,17.50
2023-02-13T06:30:19.597Z,9.53
2023-02-13T06:32:50.619Z,12.70
2023-02-13T06:35:21.919Z,11.80
2023-02-13T06:37:51.006Z,12.40
2023-02-13T06:40:22.151Z,9.43
2023-02-13T06:42:54.073Z,11.57
2023-02-13T06:45:30.139Z,12.53
2023-02-13T06:48:04.815Z,13.93
2023-02-13T06:50:36.171Z,9.83
2023-02-13T06:53:05.654Z,11.07
2023-02-13T06:55:34.629Z,12.70
2023-02-13T06:58:04.249Z,9.90
2023-02-13T07:00:37.721Z,13.40
2023-02-13T07:03:07.842Z,10.87
2023-02-13T07:05:39.248Z,15.43
2023-02-13T07:08:07.658Z,11.13
2023-02-13T07:10:39.351Z,15.60
2023-02-13T07:13:13.591Z,12.97
2023-02-13T07:16:01.126Z,10.80
2023-02-13T07:18:32.257Z,13.97
2023-02-13T07:21:03.991Z,12.80
2023-02-13T07:23:32.747Z,11.30
2023-02-13T07:26:13.723Z,14.37
2023-02-13T07:28:42.997Z,12.70
2023-02-13T07:31:19.798Z,9.23
2023-02-13T07:33:52.918Z,10.00
2023-02-13T07:36:29.346Z,11.23
2023-02-13T07:38:58.713Z,12.57
2023-02-13T07:41:30.857Z,15.90
2023-02-13T07:44:01.844Z,15.37
2023-02-13T07:46:33.894Z,11.83
2023-02-13T07:49:05.375Z,8.23
2023-02-13T07:51:34.134Z,18.30
2023-02-13T07:54:03.022Z,9.13
2023-02-13T07:56:34.828Z,19.30
2023-02-13T07:59:07.855Z,13.90
2023-02-13T08:01:46.434Z,15.07
2023-02-13T08:04:17.076Z,13.57
2023-02-13T08:06:57.670Z,12.03
2023-02-13T08:09:45.544Z,19.80
2023-02-13T08:12:22.536Z,12.67
2023-02-13T08:14:53.093Z,15.93
2023-02-13T08:17:29.842Z,17.40
2023-02-13T08:20:01.608Z,9.70
2023-02-13T08:22:29.742Z,8.37
2023-02-13T08:24:58.087Z,9.90
2023-02-13T08:27:30.316Z,10.17
2023-02-13T08:30:00.482Z,9.67
2023-02-13T08:32:41.958Z,12.90
2023-02-13T08:35:32.252Z,9.23
2023-02-13T08:38:06.484Z,11.20
2023-02-13T08:40:36.161Z,9.47
2023-02-13T08:43:16.838Z,10.30
2023-02-13T08:45:46.376Z,12.87
2023-02-13T08:48:22.179Z,12.37
2023-02-13T08:50:50.298Z,11.93
2023-02-13T08:53:32.702Z,10.50
2023-02-13T08:56:02.426Z,9.37
2023-02-13T08:58:38.911Z,12.80
2023-02-13T09:01:12.299Z,13.03
2023-02-13T09:03:44.130Z,15.83
2023-02-13T09:06:14.386Z,15.93
2023-02-13T09:08:48.697Z,14.80
2023-02-13T09:11:24.264Z,8.17
2023-02-13T09:13:54.815Z,14.60
2023-02-13T09:16:24.233Z,12.80
2023-02-13T09:19:02.076Z,14.23
2023-02-13T09:21:34.074Z,13.50
2023-02-13T09:24:06.767Z,13.77
2023-02-13T09:26:37.358Z,10.40
2023-02-13T09:29:05.884Z,15.07
2023-02-13T09:31:37.678Z,10.50
2023-02-13T09:34:11.250Z,9.30
2023-02-13T09:36:40.837Z,8.23
2023-02-13T09:39:10.818Z,6.70
2023-02-13T09:41:42.344Z,6.33
2023-02-13T09:44:34.182Z,10.90
2023-02-13T09:47:07.238Z,6.97
2023-02-13T09:49:49.112Z,12.13
2023-02-13T09:52:21.496Z,11.60
2023-02-13T09:54:54.584Z,14.87
2023-02-13T09:57:32.371Z,12.03
2023-02-13T10:00:15.575Z,9.70
2023-02-13T10:03:21.321Z,10.80
2023-02-13T10:06:10.642Z,9.13
2023-02-13T10:09:05.567Z,9.97
2023-02-13T10:11:58.087Z,14.73
2023-02-13T10:14:42.356Z,19.37
2023-02-13T10:17:18.351Z,10.23
2023-02-13T10:19:49.702Z,11.63
2023-02-13T10:22:22.113Z,8.50
2023-02-13T10:24:56.791Z,9.10
2023-02-13T10:27:29.486Z,6.90
2023-02-13T10:30:06.997Z,8.50
2023-02-13T10:32:48.894Z,5.50
2023-02-13T10:35:30.414Z,6.20
2023-02-13T10:38:09.026Z,15.07
2023-02-13T10:40:43.717Z,14.13
2023-02-13T10:43:22.460Z,8.23
2023-02-13T10:46:25.818Z,8.00
2023-02-13T10:49:19.822Z,10.23
2023-02-13T10:51:56.957Z,12.00
2023-02-13T10:54:49.206Z,7.50
2023-02-13T10:57:26.870Z,11.13
2023-02-13T11:00:09.751Z,12.07
2023-02-13T11:02:44.990Z,14.00
2023-02-13T11:05:24.482Z,17.77
2023-02-13T11:07:55.403Z,15.27
2023-02-13T11:10:30.306Z,12.90
2023-02-13T11:13:09.279Z,15.03
2023-02-13T11:15:39.665Z,15.00
2023-02-13T11:18:19.533Z,12.50
2023-02-13T11:20:49.433Z,14.77
2023-02-13T11:23:36.624Z,12.97
2023-02-13T11:26:27.602Z,15.53
2023-02-13T11:28:58.074Z,15.63
2023-02-13T11:31:31.868Z,14.70
2023-02-13T11:34:25.186Z,11.37
2023-02-13T11:36:55.692Z,11.37
2023-02-13T11:39:24.681Z,10.40
2023-02-13T11:42:17.423Z,14.27
2023-02-13T11:44:50.923Z,12.07
2023-02-13T11:47:41.305Z,8.57
2023-02-13T11:50:26.695Z,9.70
2023-02-13T11:53:01.642Z,13.87
2023-02-13T11:55:33.574Z,6.63
2023-02-13T11:58:32.090Z,7.40
2023-02-13T12:01:37.891Z,10.30
2023-02-13T12:04:18.924Z,13.70
2023-02-13T12:07:04.862Z,11.53
2023-02-13T12:09:35.803Z,10.90
2023-02-13T12:12:12.647Z,9.63
2023-02-13T12:14:45.440Z,9.53
2023-02-13T12:17:31.830Z,10.13
2023-02-13T12:20:03.284Z,11.10
2023-02-13T12:22:46.183Z,9.20
2023-02-13T12:25:28.072Z,11.50
2023-02-13T12:28:12.198Z,10.00
2023-02-13T12:34:50.816Z,10.93
2023-02-13T12:37:32.819Z,8.60
2023-02-13T12:40:16.351Z,8.27
2023-02-13T12:42:50.874Z,10.70
2023-02-13T12:45:40.371Z,10.87
2023-02-13T12:48:34.952Z,8.20
2023-02-13T12:51:18.239Z,7.40
2023-02-13T12:57:44.776Z,7.37
2023-02-13T13:00:29.486Z,8.30
2023-02-13T13:03:37.049Z,8.40
2023-02-13T13:06:15.376Z,6.33
2023-02-13T13:09:19.992Z,6.87
2023-02-13T13:12:11.768Z,7.53
2023-02-13T13:14:46.720Z,7.03
2023-02-13T13:17:26.203Z,8.03
2023-02-13T13:20:05.906Z,10.03
2023-02-13T13:22:42.512Z,8.57
2023-02-13T13:25:26.590Z,6.27
2023-02-13T13:28:01.484Z,5.47
2023-02-13T13:30:35.770Z,6.33
2023-02-13T13:33:11.600Z,6.47
2023-02-13T13:35:47.686Z,8.83
2023-02-13T13:38:25.489Z,6.23
2023-02-13T13:41:01.360Z,7.20
2023-02-13T13:43:46.052Z,8.33
2023-02-13T13:46:34.445Z,6.97
2023-02-13T13:49:19.394Z,8.03
2023-02-13T13:51:51.967Z,17.97
2023-02-13T13:54:36.806Z,18.00
2023-02-13T13:57:14.113Z,10.67
2023-02-13T14:00:34.350Z,9.93
2023-02-13T14:03:25.807Z,16.33
2023-02-13T14:06:12.509Z,14.50
2023-02-13T14:09:37.837Z,10.07
2023-02-13T14:12:50.060Z,9.93
2023-02-13T14:15:53.433Z,15.33
2023-02-13T14:18:31.905Z,10.00
2023-02-13T14:21:02.571Z,6.67
2023-02-13T14:23:52.754Z,9.33
2023-02-13T14:26:41.894Z,7.43
2023-02-13T14:29:24.736Z,6.20
2023-02-13T14:32:06.826Z,8.20
2023-02-13T14:34:37.925Z,4.50
2023-02-13T14:37:36.846Z,4.73
2023-02-13T14:40:36.777Z,9.27
2023-02-13T14:43:39.674Z,7.90
2023-02-13T14:46:49.159Z,12.40
2023-02-13T14:49:24.515Z,11.73
2023-02-13T14:51:59.220Z,12.50
2023-02-13T14:54:32.919Z,4.83
2023-02-13T14:57:10.172Z,9.80
2023-02-13T14:59:54.990Z,9.40
2023-02-13T15:02:32.459Z,8.60
2023-02-13T15:05:04.861Z,12.00
2023-02-13T15:07:37.135Z,5.10
2023-02-13T15:10:31.850Z,12.23
2023-02-13T15:13:02.086Z,4.90
2023-02-13T15:15:52.997Z,5.43
2023-02-13T15:18:24.206Z,9.40
2023-02-13T15:20:55.701Z,6.83
2023-02-13T15:23:27.877Z,5.20
2023-02-13T15:26:10.584Z,4.80
2023-02-13T15:28:50.699Z,4.87
2023-02-13T15:31:26.504Z,7.07
2023-02-13T15:33:58.290Z,7.87
2023-02-13T15:36:44.909Z,6.00
2023-02-13T15:39:24.679Z,5.37
2023-02-13T15:41:58.650Z,5.33
2023-02-13T15:44:37.406Z,7.20
2023-02-13T15:47:30.210Z,8.70
2023-02-13T15:49:59.892Z,7.07
2023-02-13T15:52:45.247Z,9.07
2023-02-13T15:55:22.043Z,7.00
2023-02-13T15:57:53.383Z,9.40
2023-02-13T16:00:31.886Z,6.03
2023-02-13T16:03:08.189Z,12.00
2023-02-13T16:05:41.670Z,7.27
2023-02-13T16:08:32.982Z,8.70
2023-02-13T16:11:33.883Z,8.77
2023-02-13T16:14:22.475Z,6.90
2023-02-13T16:16:54.656Z,8.90
2023-02-13T16:19:56.915Z,11.23
2023-02-13T16:22:36.094Z,6.07
2023-02-13T16:25:20.942Z,5.20
2023-02-13T16:27:53.617Z,5.97
2023-02-13T16:30:36.903Z,7.53
2023-02-13T16:33:43.521Z,8.90
2023-02-13T16:36:30.072Z,12.53
2023-02-13T16:39:04.173Z,10.53
2023-02-13T16:41:36.909Z,10.10
2023-02-13T16:44:12.599Z,9.33
2023-02-13T16:46:46.209Z,8.10
2023-02-13T16:49:28.084Z,10.93
2023-02-13T16:52:27.076Z,9.53
2023-02-13T16:55:05.680Z,14.80
2023-02-13T16:57:36.491Z,30.70
2023-02-13T17:00:34.931Z,21.07
2023-02-13T17:03:15.740Z,19.97
2023-02-13T17:05:56.907Z,14.83
2023-02-13T17:08:28.463Z,8.27
2023-02-13T17:11:17.998Z,8.53
2023-02-13T17:16:40.935Z,8.73
2023-02-13T17:19:16.587Z,11.83
2023-02-13T17:21:56.977Z,8.33
2023-02-13T17:24:35.586Z,8.20
2023-02-13T17:27:16.156Z,13.70
2023-02-13T17:29:56.861Z,12.10
2023-02-13T17:32:30.482Z,11.93
2023-02-13T17:35:02.616Z,10.20
2023-02-13T17:37:34.718Z,11.73
2023-02-13T17:40:13.630Z,10.17
2023-02-13T17:42:55.301Z,7.50
2023-02-13T17:45:28.869Z,8.80
2023-02-13T17:47:59.633Z,10.70
2023-02-13T17:50:43.852Z,9.90
2023-02-13T17:53:27.812Z,9.47
2023-02-13T17:56:11.789Z,10.20
2023-02-13T17:58:51.077Z,12.00
2023-02-13T18:01:25.343Z,9.53
2023-02-13T18:04:00.903Z,11.03
2023-02-13T18:06:42.489Z,9.10
2023-02-13T18:09:20.519Z,9.63
2023-02-13T18:12:05.312Z,10.20
2023-02-13T18:14:37.689Z,10.17
2023-02-13T18:17:12.467Z,11.33
2023-02-13T18:19:43.682Z,12.40
2023-02-13T18:22:13.938Z,10.07
2023-02-13T18:24:55.903Z,13.83
2023-02-13T18:27:30.848Z,27.37
2023-02-13T18:30:09.890Z,14.23
2023-02-13T18:32:50.204Z,12.03
2023-02-13T18:35:30.653Z,10.60
2023-02-13T18:38:06.765Z,12.33
2023-02-13T18:40:43.939Z,10.80
2023-02-13T18:43:33.417Z,10.23
2023-02-13T18:46:11.429Z,20.53
2023-02-13T18:48:47.207Z,14.57
2023-02-13T18:51:21.998Z,11.20
2023-02-13T18:54:13.601Z,33.60
2023-02-13T18:57:06.424Z,25.40
2023-02-13T18:59:52.733Z,16.03
2023-02-13T19:02:26.420Z,14.63
2023-02-13T19:04:59.629Z,10.57
2023-02-13T19:07:41.637Z,10.13
2023-02-13T19:10:21.603Z,7.43
2023-02-13T19:12:52.491Z,9.13
2023-02-13T19:15:48.374Z,11.87
2023-02-13T19:18:25.012Z,7.00
2023-02-13T19:21:05.690Z,9.87
2023-02-13T19:26:29.319Z,9.30
2023-02-13T19:29:19.496Z,7.30
2023-02-13T19:31:59.469Z,9.07
2023-02-13T19:34:40.043Z,8.63
2023-02-13T19:37:13.103Z,7.30
2023-02-13T19:39:56.999Z,8.03
2023-02-13T19:42:40.182Z,9.83
2023-02-13T19:45:19.219Z,9.17
2023-02-13T19:48:11.796Z,7.87
2023-02-13T19:50:54.314Z,10.13
2023-02-13T19:53:28.625Z,7.50
2023-02-13T19:56:07.823Z,9.80
2023-02-13T19:58:46.316Z,10.20
2023-02-13T20:01:29.407Z,12.03
2023-02-13T20:04:27.237Z,9.80
2023-02-13T20:06:59.443Z,7.67
2023-02-13T20:09:39.932Z,6.50
2023-02-13T20:12:31.476Z,12.47
2023-02-13T20:15:17.554Z,9.20
2023-02-13T20:17:55.404Z,9.37
2023-02-13T20:20:33.777Z,7.50
2023-02-13T20:23:13.087Z,8.70
2023-02-13T20:25:42.892Z,8.17
2023-02-13T20:28:23.392Z,10.07
2023-02-13T20:31:04.886Z,13.07
2023-02-13T20:33:42.336Z,7.87
2023-02-13T20:36:36.062Z,8.43
2023-02-13T20:39:09.974Z,10.60
2023-02-13T20:41:50.596Z,9.60
2023-02-13T20:44:24.186Z,13.27
2023-02-13T20:47:08.307Z,14.33
2023-02-13T20:49:46.807Z,7.63
2023-02-13T20:52:24.273Z,10.03
2023-02-13T20:55:06.992Z,8.70
2023-02-13T20:57:42.014Z,9.50
2023-02-13T21:00:20.583Z,8.73
2023-02-13T21:03:01.055Z,8.07
2023-02-13T21:05:45.986Z,7.87
2023-02-13T21:08:42.055Z,7.37
2023-02-13T21:11:31.028Z,8.93
2023-02-13T21:14:05.556Z,8.00
2023-02-13T21:16:39.791Z,8.73
2023-02-13T21:19:22.891Z,10.77
2023-02-13T21:21:52.909Z,10.50
2023-02-13T21:24:58.502Z,12.07
2023-02-13T21:27:42.023Z,8.67
2023-02-13T21:30:22.536Z,11.90
2023-02-13T21:33:01.648Z,9.07
2023-02-13T21:35:37.317Z,14.83
2023-02-13T21:38:15.836Z,15.20
2023-02-13T21:40:49.313Z,13.37
2023-02-13T21:43:32.027Z,11.00
2023-02-13T21:46:12.081Z,11.67
2023-02-13T21:48:52.573Z,12.13
2023-02-13T21:51:30.537Z,11.80
2023-02-13T21:54:01.246Z,11.33
2023-02-13T21:56:42.287Z,11.60
2023-02-13T21:59:18.056Z,10.23
2023-02-13T22:01:55.212Z,8.93
2023-02-13T22:04:26.104Z,10.73
2023-02-13T22:07:07.578Z,8.40
2023-02-13T22:09:39.622Z,9.23
2023-02-13T22:12:09.372Z,15.13
2023-02-13T22:14:40.103Z,9.43
2023-02-13T22:17:12.042Z,7.10
2023-02-13T22:19:43.870Z,8.60
2023-02-13T22:22:24.959Z,14.17
2023-02-13T22:24:55.745Z,8.90
2023-02-13T22:27:37.897Z,8.53
2023-02-13T22:30:09.179Z,9.83
2023-02-13T22:32:40.341Z,9.47
2023-02-13T22:35:18.311Z,10.20
2023-02-13T22:37:50.008Z,14.00
2023-02-13T22:40:20.366Z,8.60
2023-02-13T22:43:04.278Z,7.90
2023-02-13T22:45:48.397Z,8.73
2023-02-13T22:48:29.662Z,7.37
2023-02-13T22:51:05.479Z,7.23
2023-02-13T22:53:35.223Z,8.57
2023-02-13T22:56:06.555Z,8.20
2023-02-13T22:58:38.563Z,6.13
2023-02-13T23:01:14.154Z,9.50
2023-02-13T23:03:45.931Z,8.40
2023-02-13T23:06:16.046Z,7.57
2023-02-13T23:08:53.716Z,8.00
2023-02-13T23:11:45.571Z,7.37
2023-02-13T23:14:26.040Z,7.27
2023-02-13T23:17:13.174Z,7.70
2023-02-13T23:19:45.064Z,8.43
2023-02-13T23:22:23.837Z,6.83
2023-02-13T23:25:04.954Z,7.50
2023-02-13T23:27:44.752Z,8.13
2023-02-13T23:30:19.369Z,7.03
2023-02-13T23:32:50.293Z,6.40
2023-02-13T23:35:22.563Z,7.17
2023-02-13T23:37:54.739Z,8.83
2023-02-13T23:40:26.348Z,7.50
2023-02-13T23:42:56.529Z,7.20
2023-02-13T23:45:34.679Z,7.47
2023-02-13T23:48:11.485Z,7.90
2023-02-13T23:50:41.288Z,5.00
2023-02-13T23:53:18.538Z,8.90
2023-02-13T23:55:46.995Z,8.10
2023-02-13T23:58:17.236Z,7.77
